Naples, New York
Current Conditions -  °F | °C
As of 4:54 PM on Friday 31 Oct 2014 (Local Time) from KDSV Reporting Station
Overcast Overcast  
Wind Chill: 47°   Ceiling: 5000
Heat Index: 47°   Visibility: 10mi
Dew Point: 37°   Wind: 3mph
Humidity: 68%   Direction: 270°W
Pressure: 29.91"   Gusts: NA
Location:  42.62°N, 77.4°W
Report Text: KDSV 312054Z AUTO 27003KT 10SM OVC050 08/03 A2991 RMK AO2 RAB1957E34 SLP141 P0000 60000 T00830028 55001
Loading
Personal Weather Stations






























Interactive Weather Map
Tropical Storm Tracking
New forecast layout! Learn more

10-Day Weather Forecast

Advertisements
Track Severe Weather on mobile